Time;durP1;ratioP1;P1;durP2;ratioP2;P2;SDS_P1;SDS_P2;PMS_P1;PMS_P2;Temp;Humidity;BMP_temperature;BMP_pressure;BME280_temperature;BME280_humidity;BME280_pressure;Samples;Min_cycle;Max_cycle;Signal;HPM_P1;HPM_P2
2021/04/16 00:01:32;;;;;;;4.37;2.77;;;;;;;;;;4943985;29;20099;-55
2021/04/16 00:03:58;;;;;;;7.33;3.20;;;;;;;;;;4943792;29;20126;-56
2021/04/16 00:06:23;;;;;;;5.43;3.00;;;;;;;;;;4941857;29;20039;-56
2021/04/16 00:08:48;;;;;;;5.43;3.10;;;;;;;;;;4938308;29;20106;-53
2021/04/16 00:11:16;;;;;;;5.57;2.87;;;;;;;;;;4937202;29;20082;-53
2021/04/16 00:13:42;;;;;;;5.20;2.85;;;;;;;;;;4937876;29;20089;-56
2021/04/16 00:16:09;;;;;;;8.50;3.87;;;;;;;;;;4936937;29;20476;-52
2021/04/16 00:18:34;;;;;;;6.07;2.50;;;;;;;;;;4935588;29;20384;-52
2021/04/16 00:20:59;;;;;;;7.40;3.00;;;;;;;;;;4936646;29;20042;-55
2021/04/16 00:23:25;;;;;;;4.87;2.47;;;;;;;;;;4935352;28;20028;-54
2021/04/16 00:25:50;;;;;;;4.13;2.57;;;;;;;;;;4959544;28;20123;-53
2021/04/16 00:28:15;;;;;;;8.93;2.43;;;;;;;;;;4937230;29;20112;-55
2021/04/16 00:30:44;;;;;;;8.93;2.57;;;;;;;;;;4935802;29;20043;-53
2021/04/16 00:33:09;;;;;;;5.55;2.35;;;;;;;;;;4934299;29;20028;-53
2021/04/16 00:35:35;;;;;;;4.20;2.20;;;;;;;;;;4936806;29;20075;-54
2021/04/16 00:38:01;;;;;;;6.72;1.92;;;;;;;;;;4936495;29;20102;-54
2021/04/16 00:40:30;;;;;;;3.40;2.03;;;;;;;;;;4936619;29;20028;-55
2021/04/16 00:42:56;;;;;;;5.63;2.20;;;;;;;;;;4934943;29;20031;-55
2021/04/16 00:45:22;;;;;;;6.40;2.17;;;;;;;;;;4936758;29;20051;-55
2021/04/16 00:47:48;;;;;;;9.63;3.00;;;;;;;;;;4934025;29;20258;-56
2021/04/16 00:50:17;;;;;;;5.05;2.38;;;;;;;;;;4936602;29;20367;-56
2021/04/16 00:52:43;;;;;;;10.57;2.47;;;;;;;;;;4935371;28;20056;-57
2021/04/16 00:55:09;;;;;;;4.43;1.90;;;;;;;;;;4934979;29;20075;-54
2021/04/16 00:57:34;;;;;;;4.78;2.20;;;;;;;;;;4936466;29;20063;-54
2021/04/16 01:00:00;;;;;;;2.67;1.57;;;;;;;;;;4936172;29;20043;-57
2021/04/16 01:02:25;;;;;;;3.30;1.80;;;;;;;;;;4934920;29;20277;-56
2021/04/16 01:04:51;;;;;;;3.87;1.90;;;;;;;;;;4936229;29;20049;-57
2021/04/16 01:07:18;;;;;;;4.30;1.80;;;;;;;;;;4919341;29;20027;-56
2021/04/16 01:09:44;;;;;;;8.48;2.00;;;;;;;;;;4935973;29;20460;-56
2021/04/16 01:12:10;;;;;;;2.80;1.77;;;;;;;;;;4936141;29;20035;-53
2021/04/16 01:14:37;;;;;;;5.28;2.83;;;;;;;;;;4934859;29;20258;-54
2021/04/16 01:17:03;;;;;;;2.90;1.80;;;;;;;;;;4935858;29;20114;-56
2021/04/16 01:19:47;;;;;;;4.25;2.00;;;;;;;;;;4933354;29;20103;-57
2021/04/16 01:22:22;;;;;;;6.20;2.30;;;;;;;;;;4933326;29;20527;-56
2021/04/16 01:24:48;;;;;;;3.33;2.22;;;;;;;;;;4936171;29;20388;-56
2021/04/16 01:27:13;;;;;;;3.30;2.00;;;;;;;;;;4935650;29;20032;-55
2021/04/16 01:29:40;;;;;;;4.50;1.80;;;;;;;;;;4935787;29;20016;-54
2021/04/16 01:32:06;;;;;;;4.00;2.47;;;;;;;;;;4934474;28;20581;-54
2021/04/16 01:34:31;;;;;;;6.80;2.58;;;;;;;;;;4935552;29;20107;-56
2021/04/16 01:36:57;;;;;;;4.60;2.77;;;;;;;;;;4935371;29;20031;-55
2021/04/16 01:39:24;;;;;;;4.10;2.20;;;;;;;;;;4935877;29;20027;-56
2021/04/16 01:41:49;;;;;;;6.67;2.93;;;;;;;;;;4934299;29;20040;-55
2021/04/16 01:44:19;;;;;;;10.57;2.37;;;;;;;;;;4934988;29;20312;-51
2021/04/16 01:46:49;;;;;;;4.80;2.38;;;;;;;;;;4935523;29;20031;-55
2021/04/16 01:49:15;;;;;;;6.32;2.47;;;;;;;;;;4935120;29;20042;-55
2021/04/16 01:51:40;;;;;;;5.85;2.47;;;;;;;;;;4933863;29;20118;-55
2021/04/16 01:54:18;;;;;;;4.20;2.07;;;;;;;;;;4935347;29;20106;-56
2021/04/16 01:56:45;;;;;;;4.85;1.95;;;;;;;;;;4935706;29;20044;-53
2021/04/16 01:59:12;;;;;;;4.45;2.38;;;;;;;;;;4933340;29;20028;-56
2021/04/16 02:01:37;;;;;;;;;;;;;;;;;;4934311;29;20035;-55
2021/04/16 02:04:03;;;;;;;6.53;2.20;;;;;;;;;;4934834;29;19970;-56
2021/04/16 02:06:32;;;;;;;10.38;2.63;;;;;;;;;;4933896;29;20023;-55
2021/04/16 02:08:57;;;;;;;5.00;2.90;;;;;;;;;;4933731;29;20032;-56
2021/04/16 02:11:23;;;;;;;6.80;2.13;;;;;;;;;;4933774;29;20539;-55
2021/04/16 02:13:48;;;;;;;3.38;2.20;;;;;;;;;;4932468;29;20544;-54
2021/04/16 02:16:14;;;;;;;4.37;2.43;;;;;;;;;;4933435;29;20024;-54
2021/04/16 02:18:39;;;;;;;4.53;2.77;;;;;;;;;;4934834;29;20039;-55
2021/04/16 02:21:04;;;;;;;6.13;3.10;;;;;;;;;;4934404;29;20043;-56
2021/04/16 02:23:30;;;;;;;5.37;1.90;;;;;;;;;;4935291;29;20118;-52
2021/04/16 02:25:55;;;;;;;4.07;2.60;;;;;;;;;;4957895;28;20042;-56
2021/04/16 02:28:21;;;;;;;5.70;2.57;;;;;;;;;;4934363;29;20071;-53
2021/04/16 02:30:46;;;;;;;4.33;2.47;;;;;;;;;;4934694;29;20023;-54
2021/04/16 02:33:12;;;;;;;8.13;3.08;;;;;;;;;;4935785;29;20024;-55
2021/04/16 02:35:37;;;;;;;8.20;2.60;;;;;;;;;;4933740;29;20036;-55
2021/04/16 02:38:02;;;;;;;7.17;2.80;;;;;;;;;;4934709;29;20451;-53
2021/04/16 02:40:28;;;;;;;6.33;4.03;;;;;;;;;;4934662;29;20028;-54
2021/04/16 02:42:53;;;;;;;10.67;3.20;;;;;;;;;;4933071;29;20083;-54
2021/04/16 02:45:21;;;;;;;9.43;2.97;;;;;;;;;;4940984;29;20475;-56
2021/04/16 02:47:46;;;;;;;7.20;3.35;;;;;;;;;;4934299;29;20020;-54
2021/04/16 02:50:13;;;;;;;6.37;2.70;;;;;;;;;;4934508;29;20046;-55
2021/04/16 02:52:39;;;;;;;6.40;2.75;;;;;;;;;;4933454;29;20032;-54
2021/04/16 02:55:04;;;;;;;7.07;2.80;;;;;;;;;;4934357;29;20405;-54
2021/04/16 02:57:29;;;;;;;8.77;2.93;;;;;;;;;;4933228;29;20542;-54
2021/04/16 02:59:55;;;;;;;7.57;3.37;;;;;;;;;;4934099;29;20071;-54
2021/04/16 03:02:20;;;;;;;7.07;3.33;;;;;;;;;;4934148;29;20111;-57
2021/04/16 03:04:46;;;;;;;6.30;3.30;;;;;;;;;;4933209;29;20032;-55
2021/04/16 03:07:11;;;;;;;8.37;3.00;;;;;;;;;;4934251;29;20051;-53
2021/04/16 03:09:36;;;;;;;6.73;3.60;;;;;;;;;;4934563;29;20114;-54
2021/04/16 03:12:02;;;;;;;8.90;3.80;;;;;;;;;;4934379;29;20032;-52
2021/04/16 03:14:27;;;;;;;8.23;3.70;;;;;;;;;;4933797;29;20032;-54
2021/04/16 03:16:53;;;;;;;6.67;3.07;;;;;;;;;;4934298;29;20148;-56
2021/04/16 03:19:18;;;;;;;6.47;3.87;;;;;;;;;;4933168;29;20027;-56
2021/04/16 03:21:43;;;;;;;11.77;3.40;;;;;;;;;;4934482;29;20121;-56
2021/04/16 03:24:09;;;;;;;10.20;4.00;;;;;;;;;;4932758;29;20549;-55
2021/04/16 03:26:34;;;;;;;8.87;3.70;;;;;;;;;;4933076;29;20028;-54
2021/04/16 03:29:00;;;;;;;6.90;3.23;;;;;;;;;;4934191;29;20460;-54
2021/04/16 03:31:26;;;;;;;6.97;3.47;;;;;;;;;;4933906;29;20516;-54
2021/04/16 03:33:52;;;;;;;9.88;4.05;;;;;;;;;;4956771;28;20183;-55
2021/04/16 03:36:18;;;;;;;12.85;4.40;;;;;;;;;;4932836;29;20063;-54
2021/04/16 03:38:44;;;;;;;8.57;4.93;;;;;;;;;;4934532;29;20114;-55
2021/04/16 03:41:10;;;;;;;9.87;5.20;;;;;;;;;;4931328;29;20031;-51
2021/04/16 03:43:35;;;;;;;10.07;6.07;;;;;;;;;;4932693;29;20266;-55
2021/04/16 03:46:01;;;;;;;7.80;6.17;;;;;;;;;;4933849;29;20119;-54
2021/04/16 03:48:26;;;;;;;11.20;6.07;;;;;;;;;;4933861;29;20035;-56
2021/04/16 03:50:51;;;;;;;9.40;6.07;;;;;;;;;;4934556;29;20012;-56
2021/04/16 03:53:17;;;;;;;15.30;6.97;;;;;;;;;;4933207;29;20028;-57
2021/04/16 03:55:42;;;;;;;18.40;8.50;;;;;;;;;;4936708;29;20039;-57
2021/04/16 03:58:09;;;;;;;16.57;6.63;;;;;;;;;;4937405;29;20145;-55
2021/04/16 04:00:35;;;;;;;;;;;;;;;;;;4937789;29;20472;-54
2021/04/16 04:03:01;;;;;;;13.05;6.88;;;;;;;;;;4937073;29;19969;-54
2021/04/16 04:05:26;;;;;;;10.67;6.80;;;;;;;;;;4936959;29;20110;-56
2021/04/16 04:07:52;;;;;;;13.18;6.32;;;;;;;;;;4937513;29;20078;-55
2021/04/16 04:10:19;;;;;;;10.07;6.27;;;;;;;;;;4935864;29;20127;-55
2021/04/16 04:12:45;;;;;;;10.32;7.13;;;;;;;;;;4936778;29;20503;-53
2021/04/16 04:15:11;;;;;;;9.68;6.72;;;;;;;;;;4935684;29;20020;-54
2021/04/16 04:17:37;;;;;;;13.00;6.07;;;;;;;;;;4920515;29;20391;-57
2021/04/16 04:20:04;;;;;;;11.52;6.72;;;;;;;;;;4936327;29;20484;-58
2021/04/16 04:22:29;;;;;;;10.45;6.70;;;;;;;;;;4959588;28;20046;-54
2021/04/16 04:24:54;;;;;;;10.90;5.37;;;;;;;;;;4937298;29;20032;-55
2021/04/16 04:27:20;;;;;;;15.87;5.87;;;;;;;;;;4936773;29;20020;-55
2021/04/16 04:29:45;;;;;;;7.73;4.53;;;;;;;;;;4936817;29;20039;-55
2021/04/16 04:32:11;;;;;;;9.68;4.70;;;;;;;;;;4936798;29;20031;-56
2021/04/16 04:34:36;;;;;;;8.43;4.10;;;;;;;;;;4936858;29;20052;-55
2021/04/16 04:37:02;;;;;;;9.33;4.13;;;;;;;;;;4936887;29;20031;-55
2021/04/16 04:39:30;;;;;;;9.10;4.60;;;;;;;;;;4936657;29;20035;-54
2021/04/16 04:41:56;;;;;;;10.65;4.53;;;;;;;;;;4936675;29;20127;-56
2021/04/16 04:44:21;;;;;;;13.63;4.88;;;;;;;;;;4936270;29;20232;-54
2021/04/16 04:46:47;;;;;;;9.33;4.83;;;;;;;;;;4936511;29;20031;-54
2021/04/16 04:49:14;;;;;;;9.80;4.40;;;;;;;;;;4959478;28;20368;-56
2021/04/16 04:51:39;;;;;;;;;;;;;;;;;;4935628;29;20355;-55
2021/04/16 04:54:04;;;;;;;;;;;;;;;;;;4936884;29;20357;-55
2021/04/16 04:56:29;;;;;;;;;;;;;;;;;;4936671;29;19911;-56
2021/04/16 04:58:55;;;;;;;;;;;;;;;;;;4936924;29;19911;-56
2021/04/16 05:01:20;;;;;;;;;;;;;;;;;;4935165;29;20005;-55
2021/04/16 05:03:45;;;;;;;;;;;;;;;;;;4935437;29;20331;-54
2021/04/16 05:06:10;;;;;;;;;;;;;;;;;;4939284;29;20005;-53
2021/04/16 05:08:36;;;;;;;;;;;;;;;;;;4935690;29;19926;-56
2021/04/16 05:11:01;;;;;;;;;;;;;;;;;;4938264;29;19969;-54
2021/04/16 05:13:26;;;;;;;;;;;;;;;;;;4936550;29;19953;-56
2021/04/16 05:15:51;;;;;;;;;;;;;;;;;;4938480;29;19926;-54
2021/04/16 05:18:17;;;;;;;;;;;;;;;;;;4937171;29;19906;-54
2021/04/16 05:20:42;;;;;;;;;;;;;;;;;;4937454;29;19911;-54
2021/04/16 05:23:07;;;;;;;;;;;;;;;;;;4936591;29;19917;-54
2021/04/16 05:25:32;;;;;;;;;;;;;;;;;;4936381;29;19910;-57
2021/04/16 05:27:57;;;;;;;;;;;;;;;;;;4936143;29;19910;-55
2021/04/16 05:30:23;;;;;;;;;;;;;;;;;;4936005;29;19917;-56
2021/04/16 05:32:48;;;;;;;;;;;;;;;;;;4936535;29;19918;-56
2021/04/16 05:35:13;;;;;;;;;;;;;;;;;;4935187;29;20275;-56
2021/04/16 05:37:39;;;;;;;;;;;;;;;;;;4936094;29;19957;-56
2021/04/16 05:40:04;;;;;;;;;;;;;;;;;;4936062;29;20304;-56
2021/04/16 05:42:29;;;;;;;;;;;;;;;;;;4935632;29;20414;-54
2021/04/16 05:44:55;;;;;;;;;;;;;;;;;;4935978;29;20431;-54
2021/04/16 05:47:20;;;;;;;;;;;;;;;;;;4935629;29;20002;-56
2021/04/16 05:49:46;;;;;;;;;;;;;;;;;;4934444;29;19954;-56
2021/04/16 05:52:11;;;;;;;;;;;;;;;;;;4934881;29;19911;-56
2021/04/16 05:54:36;;;;;;;;;;;;;;;;;;4935654;29;19906;-55
2021/04/16 05:57:02;;;;;;;;;;;;;;;;;;4935569;29;20377;-55
2021/04/16 05:59:27;;;;;;;;;;;;;;;;;;4935266;29;19926;-55
2021/04/16 06:01:52;;;;;;;;;;;;;;;;;;4935679;29;19974;-55
2021/04/16 06:04:18;;;;;;;;;;;;;;;;;;4935713;29;20367;-56
2021/04/16 06:06:43;;;;;;;;;;;;;;;;;;4934307;29;20382;-55
2021/04/16 06:09:08;;;;;;;;;;;;;;;;;;4935512;29;19910;-54
2021/04/16 06:11:34;;;;;;;;;;;;;;;;;;4935526;29;19914;-56
2021/04/16 06:13:59;;;;;;;;;;;;;;;;;;4935477;29;19910;-58
2021/04/16 06:16:24;;;;;;;;;;;;;;;;;;4935075;29;19914;-57
2021/04/16 06:18:50;;;;;;;;;;;;;;;;;;4935220;29;20318;-54
2021/04/16 06:21:15;;;;;;;;;;;;;;;;;;4935882;29;19914;-55
2021/04/16 06:23:41;;;;;;;;;;;;;;;;;;4935609;29;19962;-52
2021/04/16 06:26:06;;;;;;;;;;;;;;;;;;4936188;29;19914;-57
2021/04/16 06:28:31;;;;;;;;;;;;;;;;;;4935977;29;19997;-54
2021/04/16 06:30:56;;;;;;;;;;;;;;;;;;4934740;29;19918;-57
2021/04/16 06:33:24;;;;;;;;;;;;;;;;;;4935587;29;20408;-53
2021/04/16 06:35:49;;;;;;;;;;;;;;;;;;4934009;29;19911;-54
2021/04/16 06:38:15;;;;;;;;;;;;;;;;;;4933987;29;19994;-54
2021/04/16 06:40:40;;;;;;;;;;;;;;;;;;4933216;29;20304;-53
2021/04/16 06:43:05;;;;;;;;;;;;;;;;;;4934643;29;19922;-56
2021/04/16 06:45:30;;;;;;;;;;;;;;;;;;4933070;29;20053;-55
2021/04/16 06:47:56;;;;;;;;;;;;;;;;;;4934997;29;19924;-53
2021/04/16 06:50:21;;;;;;;;;;;;;;;;;;4934833;29;19981;-56
2021/04/16 06:52:46;;;;;;;;;;;;;;;;;;4934721;29;20389;-55
2021/04/16 06:55:12;;;;;;;;;;;;;;;;;;4935035;29;20279;-56
2021/04/16 06:57:37;;;;;;;;;;;;;;;;;;4933305;29;20062;-54
2021/04/16 07:00:02;;;;;;;;;;;;;;;;;;4934591;29;19919;-55
2021/04/16 07:02:28;;;;;;;;;;;;;;;;;;4934776;29;19921;-55
2021/04/16 07:04:53;;;;;;;;;;;;;;;;;;4933050;29;19923;-54
2021/04/16 07:07:18;;;;;;;;;;;;;;;;;;4934359;29;20089;-54
2021/04/16 07:09:43;;;;;;;;;;;;;;;;;;4934646;29;19921;-55
2021/04/16 07:12:09;;;;;;;;;;;;;;;;;;4934601;29;19915;-56
2021/04/16 07:14:34;;;;;;;;;;;;;;;;;;4932980;29;19911;-54
2021/04/16 07:16:59;;;;;;;;;;;;;;;;;;4934453;29;20009;-55
2021/04/16 07:19:24;;;;;;;;;;;;;;;;;;4933158;29;19911;-54
2021/04/16 07:21:49;;;;;;;;;;;;;;;;;;4933540;29;19999;-56
2021/04/16 07:24:16;;;;;;;;;;;;;;;;;;4933887;29;19970;-56
2021/04/16 07:26:41;;;;;;;;;;;;;;;;;;4934721;29;19914;-56
2021/04/16 07:29:06;;;;;;;;;;;;;;;;;;4935232;29;20362;-56
2021/04/16 07:31:32;;;;;;;;;;;;;;;;;;4937753;29;20386;-55
2021/04/16 07:33:57;;;;;;;;;;;;;;;;;;4939062;29;20326;-55
2021/04/16 07:36:23;;;;;;;;;;;;;;;;;;4938321;29;20487;-54
2021/04/16 07:38:48;;;;;;;;;;;;;;;;;;4938392;29;19922;-52
2021/04/16 07:41:13;;;;;;;;;;;;;;;;;;4937078;29;19914;-54
2021/04/16 07:43:38;;;;;;;;;;;;;;;;;;4938260;29;19915;-55
2021/04/16 07:46:03;;;;;;;;;;;;;;;;;;4938214;29;19939;-55
2021/04/16 07:48:35;;;;;;;;;;;;;;;;;;4938728;29;19918;-55
2021/04/16 07:51:00;;;;;;;;;;;;;;;;;;4937187;29;19958;-55
2021/04/16 07:53:25;;;;;;;;;;;;;;;;;;4938487;29;19919;-54
2021/04/16 07:55:50;;;;;;;;;;;;;;;;;;4938205;29;19911;-55
2021/04/16 07:58:16;;;;;;;;;;;;;;;;;;4938474;29;20359;-55
2021/04/16 08:00:41;;;;;;;;;;;;;;;;;;4937652;29;20486;-56
2021/04/16 08:03:06;;;;;;;;;;;;;;;;;;4937302;29;19919;-57
2021/04/16 08:05:31;;;;;;;;;;;;;;;;;;4935815;29;19919;-56
2021/04/16 08:07:57;;;;;;;;;;;;;;;;;;4937043;29;19906;-54
2021/04/16 08:10:22;;;;;;;;;;;;;;;;;;4919983;29;19946;-55
2021/04/16 08:12:47;;;;;;;;;;;;;;;;;;4936972;29;19911;-56
2021/04/16 08:15:12;;;;;;;;;;;;;;;;;;4936624;29;19937;-55
2021/04/16 08:17:38;;;;;;;;;;;;;;;;;;4935118;29;19918;-55
2021/04/16 08:20:03;;;;;;;;;;;;;;;;;;4936773;29;20251;-56
2021/04/16 08:22:28;;;;;;;;;;;;;;;;;;4935325;29;19958;-56
2021/04/16 08:24:55;;;;;;;;;;;;;;;;;;4936225;29;20392;-57
2021/04/16 08:27:20;;;;;;;;;;;;;;;;;;4936718;29;19953;-55
2021/04/16 08:29:45;;;;;;;;;;;;;;;;;;4937821;29;19946;-56
2021/04/16 08:32:10;;;;;;;;;;;;;;;;;;4936619;29;19911;-54
2021/04/16 08:34:35;;;;;;;;;;;;;;;;;;4937940;29;20021;-54
2021/04/16 08:37:01;;;;;;;;;;;;;;;;;;4936221;29;19911;-55
2021/04/16 08:39:26;;;;;;;;;;;;;;;;;;4920936;29;19921;-53
2021/04/16 08:41:51;;;;;;;;;;;;;;;;;;4936960;29;19915;-53
2021/04/16 08:44:16;;;;;;;;;;;;;;;;;;4936247;29;19927;-55
2021/04/16 08:46:42;;;;;;;;;;;;;;;;;;4937145;29;19928;-56
2021/04/16 08:49:10;;;;;;;;;;;;;;;;;;4937196;29;19911;-54
2021/04/16 08:51:35;;;;;;;;;;;;;;;;;;4937292;29;20283;-55
2021/04/16 08:54:00;;;;;;;;;;;;;;;;;;4937077;29;19938;-55
2021/04/16 08:56:26;;;;;;;;;;;;;;;;;;4937501;29;20382;-55
2021/04/16 08:58:51;;;;;;;;;;;;;;;;;;4935724;29;20408;-56
2021/04/16 09:01:16;;;;;;;;;;;;;;;;;;4937404;29;19919;-52
2021/04/16 09:03:42;;;;;;;;;;;;;;;;;;4936141;29;19911;-55
2021/04/16 09:06:07;;;;;;;;;;;;;;;;;;4937098;29;20005;-54
2021/04/16 09:08:32;;;;;;;;;;;;;;;;;;4937363;29;20005;-55
2021/04/16 09:10:57;;;;;;;;;;;;;;;;;;4936775;29;20046;-55
2021/04/16 09:13:22;;;;;;;;;;;;;;;;;;4936830;29;19918;-57
2021/04/16 09:15:49;;;;;;;;;;;;;;;;;;4935465;29;20005;-54
2021/04/16 09:18:14;;;;;;;;;;;;;;;;;;4937086;29;19918;-54
2021/04/16 09:20:39;;;;;;;;;;;;;;;;;;4936977;29;19910;-55
2021/04/16 09:23:04;;;;;;;;;;;;;;;;;;4935402;29;19918;-54
2021/04/16 09:25:30;;;;;;;;;;;;;;;;;;4936996;29;19917;-55
2021/04/16 09:27:55;;;;;;;;;;;;;;;;;;4936670;29;20005;-54
2021/04/16 09:30:20;;;;;;;;;;;;;;;;;;4935444;29;19954;-56
2021/04/16 09:32:46;;;;;;;;;;;;;;;;;;4936591;29;19914;-56
2021/04/16 09:35:12;;;;;;;;;;;;;;;;;;4936787;29;19910;-54
2021/04/16 09:37:37;;;;;;;;;;;;;;;;;;4936187;29;19942;-56
2021/04/16 09:40:02;;;;;;;;;;;;;;;;;;4935421;29;20283;-56
2021/04/16 09:42:28;;;;;;;;;;;;;;;;;;4935418;29;20355;-58
2021/04/16 09:44:53;;;;;;;;;;;;;;;;;;4933559;29;19960;-56
2021/04/16 09:47:19;;;;;;;;;;;;;;;;;;4935235;29;20386;-57
2021/04/16 09:49:44;;;;;;;;;;;;;;;;;;4934627;29;20360;-56
2021/04/16 09:52:09;;;;;;;;;;;;;;;;;;4932167;29;20498;-56
2021/04/16 09:54:34;;;;;;;;;;;;;;;;;;4918354;29;19915;-53
2021/04/16 09:56:59;;;;;;;;;;;;;;;;;;4932440;29;19917;-56
2021/04/16 09:59:25;;;;;;;;;;;;;;;;;;4934451;29;19926;-56
2021/04/16 10:01:50;;;;;;;;;;;;;;;;;;4935140;29;19925;-56
2021/04/16 10:04:16;;;;;;;;;;;;;;;;;;4936427;29;19919;-56
2021/04/16 10:06:42;;;;;;;;;;;;;;;;;;4936409;29;19918;-54
2021/04/16 10:09:08;;;;;;;;;;;;;;;;;;4935446;29;19958;-56
2021/04/16 10:11:33;;;;;;;;;;;;;;;;;;4935224;29;19914;-56
2021/04/16 10:13:58;;;;;;;;;;;;;;;;;;4935809;29;19918;-54
2021/04/16 10:16:24;;;;;;;;;;;;;;;;;;4935950;29;19914;-54
2021/04/16 10:18:49;;;;;;;;;;;;;;;;;;4934730;29;19926;-56
2021/04/16 10:21:17;;;;;;;;;;;;;;;;;;4936349;29;20410;-54
2021/04/16 10:23:43;;;;;;;;;;;;;;;;;;4935460;29;19918;-56
2021/04/16 12:39:37;;;;;;;;;;;;;;;;;;4937462;29;19915;-57
2021/04/16 12:42:03;;;;;;;;;;;;;;;;;;4936725;29;19915;-59
2021/04/16 12:44:29;;;;;;;;;;;;;;;;;;4937502;29;19911;-57
2021/04/16 12:46:55;;;;;;;;;;;;;;;;;;4936841;29;19918;-58
2021/04/16 12:49:23;;;;;;;;;;;;;;;;;;4937235;29;20405;-57
2021/04/16 12:51:48;;;;;;;;;;;;;;;;;;4936849;29;19911;-58
2021/04/16 12:54:13;;;;;;;;;;;;;;;;;;4937089;29;20347;-56
2021/04/16 12:56:38;;;;;;;;;;;;;;;;;;4937076;29;20317;-56
2021/04/16 12:59:03;;;;;;;;;;;;;;;;;;4937306;29;20422;-58
2021/04/16 13:01:28;;;;;;;;;;;;;;;;;;4936907;29;19926;-57
2021/04/16 13:03:54;;;;;;;;;;;;;;;;;;4937236;29;20282;-57
2021/04/16 13:06:19;;;;;;;;;;;;;;;;;;4935183;29;20369;-56
2021/04/16 13:08:45;;;;;;;;;;;;;;;;;;4936973;29;19915;-58
2021/04/16 13:11:10;;;;;;;;;;;;;;;;;;4936858;29;20333;-55
2021/04/16 13:13:35;;;;;;;;;;;;;;;;;;4936699;29;20413;-57
2021/04/16 13:16:00;;;;;;;;;;;;;;;;;;4936468;29;20370;-57
2021/04/16 13:18:26;;;;;;;;;;;;;;;;;;4936542;29;19918;-56
2021/04/16 13:20:51;;;;;;;;;;;;;;;;;;4936183;29;19910;-55
2021/04/16 13:23:16;;;;;;;;;;;;;;;;;;4936146;29;19919;-57
2021/04/16 13:25:41;;;;;;;;;;;;;;;;;;4936389;29;20286;-56
2021/04/16 13:28:06;;;;;;;;;;;;;;;;;;4934075;29;20361;-57
2021/04/16 13:30:32;;;;;;;;;;;;;;;;;;4936273;29;19910;-55
2021/04/16 13:32:57;;;;;;;;;;;;;;;;;;4935187;29;20363;-56
2021/04/16 13:35:22;;;;;;;;;;;;;;;;;;4935567;29;19928;-56
2021/04/16 13:37:47;;;;;;;;;;;;;;;;;;4935292;29;19929;-56
2021/04/16 13:40:13;;;;;;;;;;;;;;;;;;4936089;29;19911;-57
2021/04/16 13:42:38;;;;;;;;;;;;;;;;;;4936126;29;19923;-57
2021/04/16 13:45:03;;;;;;;;;;;;;;;;;;4936181;29;19926;-56
2021/04/16 13:47:28;;;;;;;;;;;;;;;;;;4936293;29;19957;-58
2021/04/16 13:49:54;;;;;;;;;;;;;;;;;;4935720;29;20382;-55
2021/04/16 13:52:19;;;;;;;;;;;;;;;;;;4936003;29;19938;-53
2021/04/16 13:54:47;;;;;;;;;;;;;;;;;;4936382;29;19918;-56
2021/04/16 13:57:15;;;;;;;;;;;;;;;;;;4935814;29;19911;-56
2021/04/16 13:59:40;;;;;;;;;;;;;;;;;;4937153;29;19910;-56
2021/04/16 14:02:06;;;;;;;;;;;;;;;;;;4936626;29;19930;-56
2021/04/16 14:04:33;;;;;;;;;;;;;;;;;;4935656;29;19910;-55
2021/04/16 14:06:58;;;;;;;;;;;;;;;;;;4936184;29;19911;-56
2021/04/16 14:09:23;;;;;;;;;;;;;;;;;;4934439;29;19913;-58
2021/04/16 14:11:49;;;;;;;;;;;;;;;;;;4934608;29;19921;-56
2021/04/16 14:14:14;;;;;;;;;;;;;;;;;;4935972;29;19911;-56
2021/04/16 14:16:39;;;;;;;;;;;;;;;;;;4936128;29;19918;-56
2021/04/16 14:19:04;;;;;;;;;;;;;;;;;;4936088;29;19997;-56
2021/04/16 14:21:30;;;;;;;;;;;;;;;;;;4934021;29;20798;-56
2021/04/16 14:23:55;;;;;;;;;;;;;;;;;;4936098;29;20025;-56
2021/04/16 14:26:20;;;;;;;;;;;;;;;;;;4935653;29;19974;-56
2021/04/16 14:28:45;;;;;;;;;;;;;;;;;;4936581;29;19911;-56
2021/04/16 14:31:11;;;;;;;;;;;;;;;;;;4932547;29;20331;-56
2021/04/16 14:33:36;;;;;;;;;;;;;;;;;;4935573;29;19921;-55
2021/04/16 14:36:01;;;;;;;;;;;;;;;;;;4934413;29;19910;-54
2021/04/16 14:38:26;;;;;;;;;;;;;;;;;;4933864;29;19919;-56
2021/04/16 14:40:51;;;;;;;;;;;;;;;;;;4935419;29;19954;-55
2021/04/16 14:43:17;;;;;;;;;;;;;;;;;;4935789;29;19919;-55
2021/04/16 14:45:42;;;;;;;;;;;;;;;;;;4935943;29;20010;-55
2021/04/16 14:48:07;;;;;;;;;;;;;;;;;;4934693;29;19918;-55
2021/04/16 14:50:33;;;;;;;;;;;;;;;;;;4935039;29;19911;-56
2021/04/16 14:52:58;;;;;;;;;;;;;;;;;;4935866;29;20389;-56
2021/04/16 14:55:23;;;;;;;;;;;;;;;;;;4922233;29;20248;-54
2021/04/16 14:57:48;;;;;;;;;;;;;;;;;;4916722;29;19911;-56
2021/04/16 15:00:13;;;;;;;;;;;;;;;;;;4916622;29;19970;-56
2021/04/16 15:02:39;;;;;;;;;;;;;;;;;;4916442;29;19958;-55
2021/04/16 15:05:04;;;;;;;;;;;;;;;;;;4915151;29;19911;-57
2021/04/16 15:07:29;;;;;;;;;;;;;;;;;;4916036;29;19911;-54
2021/04/16 15:09:55;;;;;;;;;;;;;;;;;;4916776;29;19966;-55
2021/04/16 15:12:20;;;;;;;;;;;;;;;;;;4916411;29;19923;-54
2021/04/16 15:14:46;;;;;;;;;;;;;;;;;;4915242;29;20419;-55
2021/04/16 15:17:11;;;;;;;;;;;;;;;;;;4916632;29;19907;-54
2021/04/16 15:19:37;;;;;;;;;;;;;;;;;;4915829;29;19934;-55
2021/04/16 15:22:02;;;;;;;;;;;;;;;;;;4916433;29;19918;-53
2021/04/16 15:24:27;;;;;;;;;;;;;;;;;;4916404;29;19966;-55
2021/04/16 15:26:52;;;;;;;;;;;;;;;;;;4917999;29;19914;-55
2021/04/16 15:29:18;;;;;;;;;;;;;;;;;;4917184;29;19943;-54
2021/04/16 15:31:43;;;;;;;;;;;;;;;;;;4916931;29;19950;-53
2021/04/16 15:47:28;;;;;;;;;;;;;;;;;;4934523;29;20008;-54
2021/04/16 15:49:55;;;;;;;;;;;;;;;;;;4936568;29;19910;-54
2021/04/16 15:52:20;;;;;;;;;;;;;;;;;;4940279;29;19984;-54
2021/04/16 15:54:46;;;;;;;;;;;;;;;;;;4939885;29;19927;-53
2021/04/16 15:57:11;;;;;;;;;;;;;;;;;;4939426;29;19919;-55
2021/04/16 15:59:36;;;;;;;;;;;;;;;;;;4937969;29;20399;-52
2021/04/16 16:02:01;;;;;;;;;;;;;;;;;;4939489;29;19939;-54
2021/04/16 16:04:27;;;;;;;;;;;;;;;;;;4938803;29;19941;-55
2021/04/16 16:06:53;;;;;;;;;;;;;;;;;;4943992;29;19965;-54
2021/04/16 16:09:18;;;;;;;;;;;;;;;;;;4939946;29;19910;-53
2021/04/16 16:11:43;;;;;;;;;;;;;;;;;;4937642;29;19918;-55
2021/04/16 16:14:09;;;;;;;;;;;;;;;;;;4937322;29;19910;-56
2021/04/16 16:16:34;;;;;;;;;;;;;;;;;;4937144;29;19965;-53
2021/04/16 16:18:59;;;;;;;;;;;;;;;;;;4937815;29;19917;-54
2021/04/16 16:21:24;;;;;;;;;;;;;;;;;;4920449;29;19976;-54
2021/04/16 16:23:50;;;;;;;;;;;;;;;;;;4938353;29;19957;-55
2021/04/16 16:26:15;;;;;;;;;;;;;;;;;;4937508;29;19949;-53
2021/04/16 16:28:40;;;;;;;;;;;;;;;;;;4938188;29;19913;-52
2021/04/16 16:31:05;;;;;;;;;;;;;;;;;;4937105;29;19966;-53
2021/04/16 16:33:31;;;;;;;;;;;;;;;;;;4936593;29;19918;-57
2021/04/16 16:35:56;;;;;;;;;;;;;;;;;;4937008;29;19997;-53
2021/04/16 16:38:21;;;;;;;;;;;;;;;;;;4938176;29;19920;-52
2021/04/16 16:40:46;;;;;;;;;;;;;;;;;;4936500;29;20335;-55
2021/04/16 16:43:12;;;;;;;;;;;;;;;;;;4935086;29;20005;-52
2021/04/16 16:45:37;;;;;;;;;;;;;;;;;;4921624;29;19907;-51
2021/04/16 16:48:02;;;;;;;;;;;;;;;;;;4918642;29;19911;-54
2021/04/16 16:50:28;;;;;;;;;;;;;;;;;;4917871;29;19978;-52
2021/04/16 16:52:53;;;;;;;;;;;;;;;;;;4921129;29;19911;-55
2021/04/16 16:55:18;;;;;;;;;;;;;;;;;;4938393;29;20367;-55
2021/04/16 16:57:44;;;;;;;;;;;;;;;;;;4939860;29;19910;-56
2021/04/16 17:00:10;;;;;;;;;;;;;;;;;;4941500;29;20018;-54
2021/04/16 17:02:35;;;;;;;;;;;;;;;;;;4940577;29;19965;-55
2021/04/16 17:05:00;;;;;;;;;;;;;;;;;;4940164;29;19906;-55
2021/04/16 17:07:25;;;;;;;;;;;;;;;;;;4941155;29;19918;-55
2021/04/16 17:09:51;;;;;;;;;;;;;;;;;;4940962;29;19950;-56
2021/04/16 17:12:16;;;;;;;;;;;;;;;;;;4943379;29;20069;-55
2021/04/16 17:14:41;;;;;;;;;;;;;;;;;;4941038;29;20002;-55
2021/04/16 17:17:06;;;;;;;;;;;;;;;;;;4942411;29;20331;-54
2021/04/16 17:19:31;;;;;;;;;;;;;;;;;;4944055;29;20481;-55
2021/04/16 17:21:57;;;;;;;;;;;;;;;;;;4943700;29;19923;-54
2021/04/16 17:24:22;;;;;;;;;;;;;;;;;;4942096;29;19910;-55
2021/04/16 17:26:47;;;;;;;;;;;;;;;;;;4941634;29;19917;-55
2021/04/16 17:29:12;;;;;;;;;;;;;;;;;;4944540;29;19942;-60
2021/04/16 17:31:38;;;;;;;;;;;;;;;;;;4942288;29;19910;-59
2021/04/16 17:34:03;;;;;;;;;;;;;;;;;;4941668;29;20355;-54
2021/04/16 17:36:28;;;;;;;;;;;;;;;;;;4943803;29;19914;-55
2021/04/16 17:38:53;;;;;;;;;;;;;;;;;;4940914;29;19911;-55
2021/04/16 17:41:19;;;;;;;;;;;;;;;;;;4938851;29;19910;-55
2021/04/16 17:43:44;;;;;;;;;;;;;;;;;;4937641;29;19934;-55
2021/04/16 17:46:10;;;;;;;;;;;;;;;;;;4937503;29;19957;-52
2021/04/16 17:48:35;;;;;;;;;;;;;;;;;;4936035;29;19994;-53
2021/04/16 17:51:00;;;;;;;;;;;;;;;;;;4936919;29;19918;-52
2021/04/16 17:53:26;;;;;;;;;;;;;;;;;;4936364;29;20329;-55
2021/04/16 17:55:51;;;;;;;;;;;;;;;;;;4936953;29;19913;-55
2021/04/16 17:58:16;;;;;;;;;;;;;;;;;;4936581;29;20331;-54
2021/04/16 18:00:41;;;;;;;;;;;;;;;;;;4936868;29;19925;-53
2021/04/16 18:03:06;;;;;;;;;;;;;;;;;;4936574;29;19922;-52
2021/04/16 18:05:32;;;;;;;;;;;;;;;;;;4937615;29;19917;-51
2021/04/16 18:07:57;;;;;;;;;;;;;;;;;;4953131;29;19921;-52
2021/04/16 18:10:22;;;;;;;;;;;;;;;;;;4939765;29;20327;-51
2021/04/16 18:12:47;;;;;;;;;;;;;;;;;;4936452;29;19917;-54
2021/04/16 18:15:13;;;;;;;;;;;;;;;;;;4937242;29;20342;-55
2021/04/16 18:17:38;;;;;;;;;;;;;;;;;;4938471;29;20373;-55
2021/04/16 18:20:03;;;;;;;;;;;;;;;;;;4928780;29;20070;-55